Airfield :
LOGIN :

Register | Disclaimer

   EN    FR    IT 

 










Legend :    VFR   Marginal VFR   IFR   Intensive IFR   Very Intensive IFR
Visi :
Ceiling :
>= 8 km
>= 3000ft
5 to 8 km
1000 to 3000 ft
1500m to 5 km
500 to 1000 ft
800 to 1500m
200 to 500 ft
< 800m
< 200 ft
Symbols :   Thunderstorms  Fog  Heavy snow  Heavy precipitations  Wind > 20 kt
SIGMETs :     Misc.  Thunderstorms  Icing  Turbulence  Mountain Waves  Volcanic Ashes






- Airport Elevation : 49 ft
- IATA code : GLZ


EHGR - Gilze-Rijen Airbase

CURRENT METAR :
  • 021729Z AUTO 13005KT 090V160 9999 NCD 13/05 Q1028 BLU NOSIG

EXPIRED METARs :
  • 021703Z AUTO 14005KT 9999 NCD 14/05 Q1028 BLU NOSIG
  • 021655Z AUTO 14005KT 9999 NCD 14/05 Q1028 BLU NOSIG
  • 021634Z AUTO 13005KT 9999 NCD 15/05 Q1028 BLU NOSIG
  • 021625Z AUTO 14005KT 9999 NCD 15/05 Q1028 BLU
  • 021555Z AUTO 13007KT 9999 NCD 16/05 Q1028 BLU
  • 021526Z AUTO 14007KT 100V170 9999 NCD 16/05 Q1028 BLU
  • 021455Z AUTO 12007KT 080V170 9999 NCD 16/05 Q1028 BLU NOSIG

TAF TAF EHGR
Valid from the 02 at 14:00 until the 03 at 02:00 UTC


021347Z 0214/0302 11006KT CAVOK
BECMG 0220/0223 18004KT
TEMPO 0222/0309 4500 BR
PROB30
TEMPO 0300/0302 2000 BR MIFG



MET'MAP, your aeronautical weather chart ! - Copyright ORBIFLY December 2007 - Disclaimer

ORBIFLY MET'MAP TEAM :

Programming & Development : Alexandra Zaïnal
Concept & original design : Baudouin d'Aumeries
Assistance for programming : Marc-Olivier Méhu
Technical & hardware support : Manuel Goepfert

Contact : metmap@orbifly.com




SOURCES & CREDITS :

   NOAA